createdAt,value
2022-08-25T00:01:55.618Z,20.20
2022-08-25T00:04:24.663Z,20.20
2022-08-25T00:06:58.269Z,20.20
2022-08-25T00:09:33.328Z,20.10
2022-08-25T00:12:02.036Z,20.10
2022-08-25T00:14:34.287Z,20.00
2022-08-25T00:17:01.828Z,20.00
2022-08-25T00:19:34.189Z,19.90
2022-08-25T00:22:05.719Z,19.90
2022-08-25T00:24:32.875Z,19.90
2022-08-25T00:27:01.745Z,19.90
2022-08-25T00:29:30.901Z,19.80
2022-08-25T00:31:59.346Z,19.80
2022-08-25T00:34:36.438Z,19.80
2022-08-25T00:37:10.000Z,19.70
2022-08-25T00:39:38.814Z,19.70
2022-08-25T00:42:15.901Z,19.60
2022-08-25T00:44:43.981Z,19.50
2022-08-25T00:47:10.988Z,19.50
2022-08-25T00:49:48.115Z,19.50
2022-08-25T00:52:32.942Z,19.50
2022-08-25T00:55:19.239Z,19.50
2022-08-25T00:57:50.273Z,19.50
2022-08-25T01:00:24.641Z,19.60
2022-08-25T01:02:51.921Z,19.60
2022-08-25T01:05:19.576Z,19.60
2022-08-25T01:07:46.844Z,19.60
2022-08-25T01:10:14.123Z,19.60
2022-08-25T01:12:41.768Z,19.60
2022-08-25T01:15:13.172Z,19.60
2022-08-25T01:17:55.579Z,19.50
2022-08-25T01:20:27.893Z,19.50
2022-08-25T01:22:57.642Z,19.50
2022-08-25T01:25:51.493Z,19.50
2022-08-25T01:28:20.765Z,19.40
2022-08-25T01:30:47.951Z,19.30
2022-08-25T01:33:17.264Z,19.30
2022-08-25T01:35:45.926Z,19.30
2022-08-25T01:38:13.493Z,19.30
2022-08-25T01:40:41.500Z,19.30
2022-08-25T01:43:14.362Z,19.20
2022-08-25T01:45:46.467Z,19.20
2022-08-25T01:48:15.220Z,19.20
2022-08-25T01:50:43.897Z,19.20
2022-08-25T01:53:23.359Z,19.20
2022-08-25T01:55:54.250Z,19.10
2022-08-25T01:58:29.293Z,19.10
2022-08-25T02:00:59.747Z,19.10
2022-08-25T02:03:29.438Z,19.10
2022-08-25T02:05:58.512Z,19.10
2022-08-25T02:08:25.968Z,19.10
2022-08-25T02:10:55.616Z,19.10
2022-08-25T02:13:26.938Z,19.10
2022-08-25T02:16:01.171Z,19.10
2022-08-25T02:18:28.938Z,19.10
2022-08-25T02:20:56.312Z,19.00
2022-08-25T02:23:23.445Z,19.00
2022-08-25T02:25:50.645Z,19.00
2022-08-25T02:28:17.625Z,19.00
2022-08-25T02:30:45.804Z,19.00
2022-08-25T02:33:12.798Z,18.90
2022-08-25T02:35:39.841Z,18.90
2022-08-25T02:38:07.216Z,18.90
2022-08-25T02:40:34.705Z,18.90
2022-08-25T02:43:02.240Z,18.90
2022-08-25T02:45:29.645Z,18.90
2022-08-25T02:47:57.031Z,18.90
2022-08-25T02:50:24.850Z,18.90
2022-08-25T02:52:52.352Z,18.90
2022-08-25T02:55:19.605Z,18.90
2022-08-25T02:57:48.204Z,18.90
2022-08-25T03:00:17.630Z,18.90
2022-08-25T03:02:47.228Z,19.00
2022-08-25T03:05:15.688Z,19.00
2022-08-25T03:07:43.031Z,18.90
2022-08-25T03:10:16.743Z,18.90
2022-08-25T03:12:44.176Z,18.90
2022-08-25T03:15:16.331Z,18.90
2022-08-25T03:17:49.451Z,18.80
2022-08-25T03:20:19.190Z,18.80
2022-08-25T03:22:46.441Z,18.80
2022-08-25T03:25:31.860Z,18.80
2022-08-25T03:27:58.968Z,18.70
2022-08-25T03:30:27.323Z,18.70
2022-08-25T03:32:55.514Z,18.70
2022-08-25T03:35:23.694Z,18.70
2022-08-25T03:37:51.202Z,18.70
2022-08-25T03:40:18.503Z,18.70
2022-08-25T03:42:46.469Z,18.70
2022-08-25T03:45:16.454Z,18.70
2022-08-25T03:47:48.031Z,18.60
2022-08-25T03:50:16.949Z,18.60
2022-08-25T03:52:44.194Z,18.50
2022-08-25T03:55:14.433Z,18.50
2022-08-25T03:57:41.643Z,18.40
2022-08-25T04:00:12.226Z,18.40
2022-08-25T04:02:40.656Z,18.30
2022-08-25T04:05:08.949Z,18.20
2022-08-25T04:07:35.917Z,18.20
2022-08-25T04:10:05.211Z,18.10
2022-08-25T04:12:32.135Z,18.10
2022-08-25T04:14:59.286Z,18.10
2022-08-25T04:17:26.345Z,18.00
2022-08-25T04:19:53.411Z,18.00
2022-08-25T04:22:20.329Z,17.90
2022-08-25T04:24:47.260Z,17.80
2022-08-25T04:27:14.815Z,17.80
2022-08-25T04:29:42.088Z,17.80
2022-08-25T04:32:09.134Z,17.90
2022-08-25T04:34:36.211Z,17.90
2022-08-25T04:37:06.473Z,17.90
2022-08-25T04:39:33.762Z,17.80
2022-08-25T04:42:03.050Z,17.80
2022-08-25T04:44:30.862Z,17.80
2022-08-25T04:46:59.291Z,17.80
2022-08-25T04:49:26.377Z,17.80
2022-08-25T04:51:53.637Z,17.80
2022-08-25T04:54:23.539Z,17.80
2022-08-25T04:56:54.559Z,17.80
2022-08-25T04:59:29.389Z,17.80
2022-08-25T05:02:02.999Z,17.80
2022-08-25T05:04:32.644Z,17.80
2022-08-25T05:06:59.960Z,17.80
2022-08-25T05:09:28.062Z,17.90
2022-08-25T05:11:55.388Z,17.90
2022-08-25T05:14:25.703Z,17.90
2022-08-25T05:16:55.536Z,17.90
2022-08-25T05:19:24.386Z,17.90
2022-08-25T05:21:52.723Z,18.00
2022-08-25T05:24:22.032Z,18.10
2022-08-25T05:26:49.355Z,18.10
2022-08-25T05:29:16.552Z,18.20
2022-08-25T05:31:50.096Z,18.20
2022-08-25T05:34:19.707Z,18.20
2022-08-25T05:36:51.035Z,18.30
2022-08-25T05:39:18.139Z,18.30
2022-08-25T05:41:45.287Z,18.40
2022-08-25T05:44:12.862Z,18.40
2022-08-25T05:46:40.051Z,18.50
2022-08-25T05:49:07.176Z,18.60
2022-08-25T05:51:34.271Z,18.60
2022-08-25T05:54:01.352Z,18.70
2022-08-25T05:56:28.380Z,18.70
2022-08-25T05:58:55.502Z,18.80
2022-08-25T06:01:47.682Z,18.90
2022-08-25T06:04:17.850Z,18.90
2022-08-25T06:06:44.964Z,18.90
2022-08-25T06:09:12.673Z,19.00
2022-08-25T06:11:41.541Z,19.10
2022-08-25T06:14:09.795Z,19.10
2022-08-25T06:16:39.015Z,19.20
2022-08-25T06:19:09.135Z,19.30
2022-08-25T06:21:39.326Z,19.30
2022-08-25T06:24:10.036Z,19.40
2022-08-25T06:26:40.732Z,19.50
2022-08-25T06:29:07.943Z,19.50
2022-08-25T06:31:35.129Z,19.60
2022-08-25T06:34:02.260Z,19.60
2022-08-25T06:36:29.321Z,19.70
2022-08-25T06:38:56.359Z,19.80
2022-08-25T06:41:23.688Z,19.90
2022-08-25T06:43:55.811Z,20.00
2022-08-25T06:46:36.489Z,20.20
2022-08-25T06:49:06.193Z,20.30
2022-08-25T06:51:35.873Z,20.40
2022-08-25T06:54:03.858Z,20.60
2022-08-25T06:56:30.891Z,20.70
2022-08-25T06:58:58.309Z,20.90
2022-08-25T07:01:27.333Z,21.10
2022-08-25T07:03:57.799Z,21.30
2022-08-25T07:06:27.906Z,21.50
2022-08-25T07:08:55.362Z,21.70
2022-08-25T07:11:22.522Z,21.90
2022-08-25T07:13:50.901Z,22.10
2022-08-25T07:16:20.567Z,22.20
2022-08-25T07:18:48.861Z,22.50
2022-08-25T07:21:17.474Z,22.70
2022-08-25T07:23:47.264Z,22.90
2022-08-25T07:26:37.296Z,23.10
2022-08-25T07:29:09.419Z,23.30
2022-08-25T07:31:36.582Z,23.50
2022-08-25T07:34:25.459Z,23.70
2022-08-25T07:36:54.550Z,23.80
2022-08-25T07:39:23.285Z,23.80
2022-08-25T07:41:51.963Z,24.10
2022-08-25T07:44:21.870Z,24.20
2022-08-25T07:46:51.022Z,24.40
2022-08-25T07:49:23.525Z,24.50
2022-08-25T07:52:05.660Z,24.60
2022-08-25T07:54:38.189Z,24.70
2022-08-25T07:57:08.666Z,24.70
2022-08-25T07:59:40.777Z,24.80
2022-08-25T08:02:18.508Z,25.00
2022-08-25T08:04:49.649Z,25.20
2022-08-25T08:07:33.622Z,25.30
2022-08-25T08:13:00.537Z,25.60
2022-08-25T08:15:29.738Z,25.70
2022-08-25T08:17:59.327Z,25.90
2022-08-25T08:20:28.708Z,26.00
2022-08-25T08:22:55.876Z,26.10
2022-08-25T08:25:26.562Z,26.20
2022-08-25T08:27:56.183Z,26.40
2022-08-25T08:30:26.196Z,26.50
2022-08-25T08:33:11.279Z,26.60
2022-08-25T08:35:41.227Z,26.80
2022-08-25T08:38:14.773Z,27.10
2022-08-25T08:44:47.681Z,27.30
2022-08-25T08:47:44.373Z,27.40
2022-08-25T08:50:42.098Z,27.60
2022-08-25T08:53:27.473Z,27.70
2022-08-25T08:56:06.869Z,27.80
2022-08-25T08:59:06.304Z,28.00
2022-08-25T09:01:59.152Z,28.10
2022-08-25T09:04:44.409Z,28.20
2022-08-25T09:07:20.727Z,28.20
2022-08-25T09:09:48.558Z,28.40
2022-08-25T09:12:37.433Z,28.60
2022-08-25T09:15:22.877Z,28.60
2022-08-25T09:18:01.966Z,28.70
2022-08-25T09:20:58.230Z,28.90
2022-08-25T09:23:51.588Z,29.00
2022-08-25T09:26:44.627Z,29.20
2022-08-25T09:29:21.120Z,29.40
2022-08-25T09:31:49.312Z,29.30
2022-08-25T09:34:25.201Z,29.40
2022-08-25T09:36:53.537Z,29.50
2022-08-25T09:39:21.395Z,29.60
2022-08-25T09:42:00.167Z,29.80
2022-08-25T09:44:32.500Z,29.80
2022-08-25T09:47:18.051Z,29.80
2022-08-25T09:50:00.708Z,29.70
2022-08-25T09:52:41.786Z,29.70
2022-08-25T09:55:09.185Z,29.60
2022-08-25T09:57:45.783Z,29.80
2022-08-25T10:00:16.949Z,30.10
2022-08-25T10:03:05.602Z,30.10
2022-08-25T10:05:35.463Z,30.00
2022-08-25T10:08:14.650Z,30.10
2022-08-25T10:10:55.346Z,30.10
2022-08-25T10:13:33.822Z,30.20
2022-08-25T10:16:33.650Z,30.40
2022-08-25T10:19:14.308Z,30.50
2022-08-25T10:21:43.678Z,30.30
2022-08-25T10:24:19.556Z,30.40
2022-08-25T10:27:00.132Z,30.60
2022-08-25T10:30:07.393Z,30.80
2022-08-25T10:32:52.709Z,30.60
2022-08-25T10:35:29.342Z,30.70
2022-08-25T10:38:21.637Z,30.70
2022-08-25T10:41:26.989Z,30.70
2022-08-25T10:44:33.388Z,30.60
2022-08-25T10:47:18.677Z,30.70
2022-08-25T10:49:51.177Z,30.90
2022-08-25T10:52:36.659Z,31.00
2022-08-25T10:55:27.662Z,31.10
2022-08-25T10:58:48.228Z,30.90
2022-08-25T11:01:38.963Z,31.00
2022-08-25T11:04:19.245Z,31.00
2022-08-25T11:07:16.635Z,30.90
2022-08-25T11:09:49.324Z,30.90
2022-08-25T11:12:35.009Z,30.90
2022-08-25T11:15:25.961Z,31.00
2022-08-25T11:18:04.360Z,31.00
2022-08-25T11:21:12.705Z,31.20
2022-08-25T11:23:58.306Z,31.30
2022-08-25T11:26:36.901Z,31.50
2022-08-25T11:29:30.929Z,31.50
2022-08-25T11:32:01.242Z,31.40
2022-08-25T11:34:34.110Z,31.50
2022-08-25T11:37:11.270Z,31.60
2022-08-25T11:40:10.990Z,31.70
2022-08-25T11:43:06.179Z,31.90
2022-08-25T11:45:48.012Z,32.00
2022-08-25T11:49:07.153Z,32.00
2022-08-25T11:51:50.496Z,32.10
2022-08-25T11:54:36.196Z,32.10
2022-08-25T11:57:10.558Z,32.10
2022-08-25T11:59:53.086Z,32.10
2022-08-25T12:02:45.355Z,32.00
2022-08-25T12:05:35.285Z,32.00
2022-08-25T12:08:25.059Z,31.90
2022-08-25T12:10:56.255Z,32.30
2022-08-25T12:13:50.844Z,32.20
2022-08-25T12:16:43.579Z,32.20
2022-08-25T12:19:35.877Z,32.40
2022-08-25T12:22:03.917Z,32.20
2022-08-25T12:24:48.336Z,32.10
2022-08-25T12:28:09.087Z,32.40
2022-08-25T12:30:51.009Z,32.40
2022-08-25T12:33:33.255Z,32.30
2022-08-25T12:36:08.407Z,32.40
2022-08-25T12:38:53.008Z,32.40
2022-08-25T12:41:26.623Z,32.40
2022-08-25T12:44:10.715Z,32.40
2022-08-25T12:46:40.101Z,32.50
2022-08-25T12:49:32.261Z,32.50
2022-08-25T12:52:16.920Z,32.50
2022-08-25T12:55:03.736Z,32.40
2022-08-25T12:57:46.400Z,32.70
2022-08-25T13:03:14.768Z,32.50
2022-08-25T13:06:15.412Z,32.60
2022-08-25T13:09:13.236Z,32.60
2022-08-25T13:12:24.093Z,32.60
2022-08-25T13:14:56.678Z,32.50
2022-08-25T13:17:36.435Z,32.50
2022-08-25T13:20:26.670Z,32.60
2022-08-25T13:22:59.658Z,32.80
2022-08-25T13:25:32.191Z,32.80
2022-08-25T13:28:06.407Z,32.90
2022-08-25T13:30:39.163Z,33.00
2022-08-25T13:33:20.655Z,32.90
2022-08-25T13:36:14.361Z,32.80
2022-08-25T13:38:45.891Z,32.90
2022-08-25T13:41:28.889Z,32.90
2022-08-25T13:44:00.913Z,32.90
2022-08-25T13:46:29.024Z,32.70
2022-08-25T13:49:08.811Z,32.80
2022-08-25T13:51:38.516Z,32.80
2022-08-25T13:54:09.528Z,33.00
2022-08-25T13:56:41.645Z,33.00
2022-08-25T13:59:40.290Z,32.80
2022-08-25T14:02:15.293Z,33.00
2022-08-25T14:04:51.779Z,33.00
2022-08-25T14:07:22.860Z,32.80
2022-08-25T14:10:36.646Z,32.80
2022-08-25T14:13:34.441Z,33.00
2022-08-25T14:16:38.150Z,33.00
2022-08-25T14:19:05.580Z,33.00
2022-08-25T14:21:34.510Z,33.00
2022-08-25T14:24:01.616Z,33.00
2022-08-25T14:26:28.976Z,33.00
2022-08-25T14:28:57.795Z,32.80
2022-08-25T14:31:29.827Z,32.80
2022-08-25T14:34:07.030Z,32.80
2022-08-25T14:36:36.492Z,32.80
2022-08-25T14:39:08.877Z,32.90
2022-08-25T14:41:38.605Z,32.70
2022-08-25T14:44:07.079Z,32.80
2022-08-25T14:46:44.008Z,32.60
2022-08-25T14:49:24.806Z,32.70
2022-08-25T14:51:53.244Z,32.60
2022-08-25T14:54:26.698Z,32.60
2022-08-25T14:56:54.315Z,32.60
2022-08-25T14:59:22.600Z,32.50
2022-08-25T15:01:50.009Z,32.40
2022-08-25T15:04:28.516Z,32.30
2022-08-25T15:07:01.565Z,32.20
2022-08-25T15:09:33.468Z,32.30
2022-08-25T15:12:00.951Z,32.30
2022-08-25T15:14:28.640Z,32.20
2022-08-25T15:17:01.881Z,32.20
2022-08-25T15:19:29.164Z,32.20
2022-08-25T15:21:57.941Z,32.00
2022-08-25T15:24:27.999Z,32.10
2022-08-25T15:27:02.405Z,32.00
2022-08-25T15:29:32.501Z,32.00
2022-08-25T15:32:00.467Z,32.00
2022-08-25T15:34:28.495Z,32.00
2022-08-25T15:36:58.310Z,32.00
2022-08-25T15:39:26.356Z,32.00
2022-08-25T15:41:53.667Z,31.90
2022-08-25T15:44:23.360Z,31.90
2022-08-25T15:46:56.346Z,31.70
2022-08-25T15:49:24.079Z,31.70
2022-08-25T15:51:55.945Z,31.70
2022-08-25T15:54:26.750Z,31.60
2022-08-25T15:56:56.126Z,31.70
2022-08-25T15:59:25.611Z,31.80
2022-08-25T16:01:56.134Z,31.80
2022-08-25T16:04:26.332Z,31.70
2022-08-25T16:06:54.196Z,31.70
2022-08-25T16:09:23.603Z,31.70
2022-08-25T16:11:56.962Z,31.60
2022-08-25T16:14:27.827Z,31.70
2022-08-25T16:16:58.332Z,31.60
2022-08-25T16:19:28.836Z,31.60
2022-08-25T16:21:56.928Z,31.60
2022-08-25T16:24:24.662Z,31.50
2022-08-25T16:26:52.409Z,31.50
2022-08-25T16:29:22.806Z,31.60
2022-08-25T16:31:52.927Z,31.50
2022-08-25T16:34:20.715Z,31.50
2022-08-25T16:36:47.796Z,31.40
2022-08-25T16:39:20.685Z,31.20
2022-08-25T16:41:48.217Z,31.10
2022-08-25T16:44:16.189Z,31.00
2022-08-25T16:46:44.219Z,30.80
2022-08-25T16:49:14.267Z,30.60
2022-08-25T16:51:43.202Z,30.60
2022-08-25T16:54:30.077Z,30.40
2022-08-25T16:56:57.634Z,30.30
2022-08-25T16:59:26.149Z,30.10
2022-08-25T17:01:54.165Z,30.00
2022-08-25T17:04:29.454Z,29.90
2022-08-25T17:06:59.653Z,29.80
2022-08-25T17:09:26.815Z,29.80
2022-08-25T17:11:56.877Z,29.70
2022-08-25T17:14:25.271Z,29.60
2022-08-25T17:16:55.026Z,29.50
2022-08-25T17:19:23.626Z,29.40
2022-08-25T17:21:52.347Z,29.30
2022-08-25T17:24:19.356Z,29.20
2022-08-25T17:26:50.007Z,29.10
2022-08-25T17:29:18.660Z,29.00
2022-08-25T17:31:46.355Z,28.90
2022-08-25T17:34:16.533Z,28.80
2022-08-25T17:36:45.268Z,28.60
2022-08-25T17:39:14.518Z,28.50
2022-08-25T17:41:43.906Z,28.40
2022-08-25T17:44:12.266Z,28.20
2022-08-25T17:46:46.965Z,28.10
2022-08-25T17:49:16.078Z,28.00
2022-08-25T17:51:43.198Z,27.80
2022-08-25T17:54:11.030Z,27.70
2022-08-25T17:56:38.499Z,27.50
2022-08-25T17:59:06.574Z,27.40
2022-08-25T18:01:40.245Z,27.30
2022-08-25T18:04:17.680Z,27.20
2022-08-25T18:06:48.452Z,27.00
2022-08-25T18:09:16.463Z,26.80
2022-08-25T18:11:45.633Z,26.70
2022-08-25T18:14:16.413Z,26.50
2022-08-25T18:16:43.468Z,26.40
2022-08-25T18:19:12.377Z,26.30
2022-08-25T18:21:41.645Z,26.10
2022-08-25T18:24:11.440Z,26.00
2022-08-25T18:26:40.659Z,25.90
2022-08-25T18:29:12.073Z,25.80
2022-08-25T18:31:41.810Z,25.60
2022-08-25T18:34:11.221Z,25.50
2022-08-25T18:36:39.110Z,25.40
2022-08-25T18:39:25.367Z,25.30
2022-08-25T18:41:52.495Z,25.30
2022-08-25T18:44:19.811Z,25.20
2022-08-25T18:46:47.581Z,25.10
2022-08-25T18:49:17.082Z,25.00
2022-08-25T18:51:46.732Z,24.90
2022-08-25T18:54:23.750Z,24.80
2022-08-25T18:56:53.251Z,24.80
2022-08-25T18:59:23.630Z,24.70
2022-08-25T19:01:53.147Z,24.60
2022-08-25T19:04:20.359Z,24.50
2022-08-25T19:06:55.344Z,24.40
2022-08-25T19:09:22.769Z,24.30
2022-08-25T19:11:49.808Z,24.30
2022-08-25T19:14:16.905Z,24.20
2022-08-25T19:16:45.669Z,24.10
2022-08-25T19:19:14.204Z,24.00
2022-08-25T19:21:42.060Z,23.90
2022-08-25T19:24:11.760Z,23.80
2022-08-25T19:26:40.936Z,23.70
2022-08-25T19:29:15.836Z,23.60
2022-08-25T19:31:46.033Z,23.50
2022-08-25T19:34:20.207Z,23.50
2022-08-25T19:36:48.739Z,23.40
2022-08-25T19:39:16.439Z,23.30
2022-08-25T19:41:45.196Z,23.30
2022-08-25T19:44:12.343Z,23.20
2022-08-25T19:46:42.951Z,23.20
2022-08-25T19:49:16.907Z,23.10
2022-08-25T19:51:49.191Z,23.10
2022-08-25T19:54:28.337Z,23.00
2022-08-25T19:56:57.325Z,23.00
2022-08-25T19:59:40.479Z,22.90
2022-08-25T20:02:24.946Z,22.80
2022-08-25T20:04:55.418Z,22.70
2022-08-25T20:07:27.631Z,22.70
2022-08-25T20:09:56.785Z,22.60
2022-08-25T20:12:27.006Z,22.50
2022-08-25T20:14:55.303Z,22.50
2022-08-25T20:17:26.128Z,22.50
2022-08-25T20:19:59.268Z,22.50
2022-08-25T20:22:29.006Z,22.50
2022-08-25T20:25:01.112Z,22.40
2022-08-25T20:27:39.732Z,22.40
2022-08-25T20:30:14.745Z,22.30
2022-08-25T20:32:45.633Z,22.20
2022-08-25T20:35:14.430Z,22.20
2022-08-25T20:37:44.389Z,22.20
2022-08-25T20:40:15.554Z,22.20
2022-08-25T20:42:43.438Z,22.10
2022-08-25T20:45:14.484Z,22.10
2022-08-25T20:47:42.018Z,22.00
2022-08-25T20:50:09.630Z,22.00
2022-08-25T20:52:37.385Z,22.00
2022-08-25T20:55:10.371Z,22.00
2022-08-25T20:57:38.295Z,21.90
2022-08-25T21:00:07.295Z,21.90
2022-08-25T21:02:34.748Z,21.80
2022-08-25T21:05:02.861Z,21.80
2022-08-25T21:07:30.067Z,21.70
2022-08-25T21:09:57.754Z,21.70
2022-08-25T21:12:24.866Z,21.60
2022-08-25T21:14:51.979Z,21.50
2022-08-25T21:17:19.879Z,21.50
2022-08-25T21:22:15.799Z,21.40
2022-08-25T21:24:43.101Z,21.40
2022-08-25T21:27:11.901Z,21.30
2022-08-25T21:29:38.957Z,21.30
2022-08-25T21:32:12.006Z,21.20
2022-08-25T21:34:39.368Z,21.20
2022-08-25T21:37:07.101Z,21.20
2022-08-25T21:39:35.193Z,21.20
2022-08-25T21:42:04.249Z,21.20
2022-08-25T21:44:31.219Z,21.20
2022-08-25T21:46:58.217Z,21.20
2022-08-25T21:49:25.682Z,21.10
2022-08-25T21:52:00.370Z,21.10
2022-08-25T21:54:28.588Z,21.10
2022-08-25T21:57:03.583Z,21.10
2022-08-25T21:59:34.752Z,21.10
2022-08-25T22:02:07.412Z,21.00
2022-08-25T22:04:36.311Z,20.90
2022-08-25T22:07:03.749Z,20.90
2022-08-25T22:09:31.054Z,20.90
2022-08-25T22:11:58.735Z,21.00
2022-08-25T22:14:27.246Z,21.00
2022-08-25T22:16:55.362Z,21.10
2022-08-25T22:19:23.886Z,21.20
2022-08-25T22:21:52.957Z,21.40
2022-08-25T22:24:21.033Z,21.50
2022-08-25T22:26:50.494Z,21.60
2022-08-25T22:29:25.302Z,21.50
2022-08-25T22:31:59.432Z,21.60
2022-08-25T22:34:33.063Z,21.50
2022-08-25T22:37:04.744Z,21.50
2022-08-25T22:39:34.393Z,21.50
2022-08-25T22:42:02.921Z,21.40
2022-08-25T22:44:30.008Z,21.50
2022-08-25T22:46:57.019Z,21.40
2022-08-25T22:49:24.127Z,21.30
2022-08-25T22:51:51.607Z,21.20
2022-08-25T22:54:22.089Z,21.20
2022-08-25T22:56:49.181Z,21.20
2022-08-25T22:59:16.264Z,21.20
2022-08-25T23:01:45.072Z,21.10
2022-08-25T23:04:14.572Z,21.00
2022-08-25T23:06:41.685Z,21.00
2022-08-25T23:09:11.027Z,21.00
2022-08-25T23:11:39.224Z,21.00
2022-08-25T23:14:08.214Z,20.90
2022-08-25T23:16:35.595Z,20.90
2022-08-25T23:19:02.722Z,20.90
2022-08-25T23:21:48.991Z,20.90
2022-08-25T23:24:26.856Z,20.80
2022-08-25T23:26:59.644Z,20.80
2022-08-25T23:29:29.072Z,20.70
2022-08-25T23:31:58.277Z,20.70
2022-08-25T23:34:27.553Z,20.70
2022-08-25T23:36:56.835Z,20.60
2022-08-25T23:39:24.281Z,20.60
2022-08-25T23:41:52.115Z,20.60
2022-08-25T23:44:21.950Z,20.50
2022-08-25T23:46:51.059Z,20.60
2022-08-25T23:49:21.520Z,20.50
2022-08-25T23:51:52.696Z,20.50
2022-08-25T23:54:21.425Z,20.50
2022-08-25T23:56:52.391Z,20.40
2022-08-25T23:59:24.028Z,20.40
